createdAt,value
2023-06-07T00:01:46.961Z,5.87
2023-06-07T00:04:49.585Z,6.33
2023-06-07T00:07:53.074Z,6.55
2023-06-07T00:10:55.175Z,5.65
2023-06-07T00:13:58.073Z,6.07
2023-06-07T00:17:00.748Z,6.57
2023-06-07T00:20:04.447Z,5.97
2023-06-07T00:23:08.014Z,6.00
2023-06-07T00:26:10.193Z,6.82
2023-06-07T00:29:13.044Z,7.60
2023-06-07T00:32:15.618Z,8.23
2023-06-07T00:35:17.966Z,4.67
2023-06-07T00:38:20.171Z,6.70
2023-06-07T00:41:23.566Z,10.63
2023-06-07T00:44:27.726Z,6.40
2023-06-07T00:47:30.897Z,6.20
2023-06-07T00:50:39.374Z,9.73
2023-06-07T00:53:44.239Z,6.03
2023-06-07T00:56:51.688Z,9.57
2023-06-07T00:59:54.309Z,6.22
2023-06-07T01:02:58.454Z,8.00
2023-06-07T01:06:03.915Z,8.53
2023-06-07T01:09:15.205Z,7.00
2023-06-07T01:12:19.528Z,7.70
2023-06-07T01:15:22.299Z,7.80
2023-06-07T01:18:25.931Z,9.50
2023-06-07T01:21:27.932Z,7.40
2023-06-07T01:24:32.039Z,8.65
2023-06-07T01:27:34.977Z,7.30
2023-06-07T01:30:37.602Z,6.03
2023-06-07T01:33:41.666Z,8.10
2023-06-07T01:36:44.963Z,8.37
2023-06-07T01:39:49.431Z,9.55
2023-06-07T01:42:53.232Z,10.23
2023-06-07T01:45:55.622Z,8.88
2023-06-07T01:48:57.812Z,7.67
2023-06-07T01:52:00.157Z,8.07
2023-06-07T01:55:05.330Z,9.48
2023-06-07T01:58:32.141Z,7.55
2023-06-07T02:02:03.256Z,8.55
2023-06-07T02:05:13.084Z,7.23
2023-06-07T02:08:25.434Z,8.77
2023-06-07T02:11:29.024Z,8.95
2023-06-07T02:14:31.969Z,9.40
2023-06-07T02:17:34.938Z,10.63
2023-06-07T02:20:38.744Z,8.30
2023-06-07T02:23:40.847Z,8.40
2023-06-07T02:26:43.815Z,5.22
2023-06-07T02:29:50.364Z,6.25
2023-06-07T02:32:55.187Z,6.80
2023-06-07T02:35:57.546Z,5.70
2023-06-07T02:39:00.145Z,8.23
2023-06-07T02:42:03.279Z,7.80
2023-06-07T02:45:06.123Z,7.72
2023-06-07T02:48:08.659Z,6.63
2023-06-07T02:51:11.099Z,8.27
2023-06-07T02:54:15.577Z,7.23
2023-06-07T02:57:19.141Z,9.40
2023-06-07T03:00:21.461Z,8.23
2023-06-07T03:03:25.170Z,7.57
2023-06-07T03:06:30.862Z,8.80
2023-06-07T03:09:33.629Z,8.13
2023-06-07T03:12:35.768Z,8.38
2023-06-07T03:15:38.634Z,8.07
2023-06-07T03:18:40.890Z,7.88
2023-06-07T03:21:45.891Z,8.07
2023-06-07T03:24:48.687Z,10.27
2023-06-07T03:27:50.938Z,11.57
2023-06-07T03:30:53.161Z,10.50
2023-06-07T03:33:55.736Z,11.82
2023-06-07T03:37:00.260Z,11.77
2023-06-07T03:40:02.448Z,12.07
2023-06-07T03:43:04.625Z,11.82
2023-06-07T03:46:09.997Z,8.88
2023-06-07T03:49:11.990Z,10.40
2023-06-07T03:52:14.006Z,9.60
2023-06-07T03:55:21.204Z,10.20
2023-06-07T03:58:24.659Z,10.20
2023-06-07T04:01:28.083Z,12.43
2023-06-07T04:04:34.073Z,9.07
2023-06-07T04:07:36.519Z,9.53
2023-06-07T04:10:38.572Z,10.27
2023-06-07T04:13:44.264Z,8.38
2023-06-07T04:16:47.808Z,8.82
2023-06-07T04:19:56.214Z,8.35
2023-06-07T04:22:58.366Z,8.07
2023-06-07T04:26:01.657Z,6.10
2023-06-07T04:29:04.506Z,5.47
2023-06-07T04:32:08.231Z,6.07
2023-06-07T04:35:11.514Z,6.93
2023-06-07T04:38:23.367Z,11.67
2023-06-07T04:41:34.400Z,7.97
2023-06-07T04:44:38.419Z,6.00
2023-06-07T04:47:48.469Z,5.32
2023-06-07T04:50:52.656Z,5.10
2023-06-07T04:53:59.716Z,7.20
2023-06-07T04:57:02.063Z,7.07
2023-06-07T05:00:07.729Z,5.68
2023-06-07T05:03:14.657Z,6.22
2023-06-07T05:06:18.642Z,6.03
2023-06-07T05:09:22.137Z,9.20
2023-06-07T05:12:24.590Z,6.50
2023-06-07T05:15:26.881Z,6.32
2023-06-07T05:18:30.051Z,4.65
2023-06-07T05:21:32.465Z,4.03
2023-06-07T05:24:34.536Z,7.13
2023-06-07T05:27:38.037Z,6.07
2023-06-07T05:30:40.852Z,5.57
2023-06-07T05:33:42.973Z,6.43
2023-06-07T05:36:46.778Z,7.80
2023-06-07T05:39:48.756Z,6.33
2023-06-07T05:42:51.525Z,7.83
2023-06-07T05:45:53.672Z,7.30
2023-06-07T05:48:58.599Z,7.35
2023-06-07T05:52:03.350Z,6.75
2023-06-07T05:55:06.126Z,7.63
2023-06-07T05:58:08.486Z,6.03
2023-06-07T06:01:12.652Z,5.03
2023-06-07T06:04:16.850Z,5.40
2023-06-07T06:07:22.454Z,7.32
2023-06-07T06:10:25.381Z,5.73
2023-06-07T06:13:31.737Z,7.83
2023-06-07T06:16:34.185Z,6.78
2023-06-07T06:19:37.957Z,5.75
2023-06-07T06:22:40.480Z,7.25
2023-06-07T06:25:44.042Z,6.43
2023-06-07T06:28:46.401Z,6.83
2023-06-07T06:31:48.508Z,7.50
2023-06-07T06:34:52.987Z,6.35
2023-06-07T06:37:55.129Z,6.25
2023-06-07T06:41:01.471Z,5.50
2023-06-07T06:44:04.031Z,7.03
2023-06-07T06:47:06.766Z,8.07
2023-06-07T06:50:27.027Z,7.78
2023-06-07T06:53:34.555Z,8.65
2023-06-07T06:56:41.192Z,7.63
2023-06-07T06:59:44.086Z,6.90
2023-06-07T07:02:49.591Z,8.40
2023-06-07T07:05:53.027Z,6.28
2023-06-07T07:09:01.827Z,6.75
2023-06-07T07:12:14.198Z,7.13
2023-06-07T07:15:32.565Z,8.17
2023-06-07T07:18:51.871Z,8.23
2023-06-07T07:22:04.928Z,8.70
2023-06-07T07:25:07.639Z,8.40
2023-06-07T07:28:15.878Z,7.93
2023-06-07T07:31:18.507Z,7.57
2023-06-07T07:34:21.296Z,10.93
2023-06-07T07:37:23.772Z,8.10
2023-06-07T07:40:48.331Z,8.02
2023-06-07T07:43:51.954Z,7.03
2023-06-07T07:46:54.261Z,10.07
2023-06-07T07:49:59.342Z,11.25
2023-06-07T07:53:07.588Z,8.75
2023-06-07T07:56:11.021Z,8.23
2023-06-07T07:59:14.956Z,10.50
2023-06-07T08:02:17.101Z,6.93
2023-06-07T08:05:20.044Z,7.25
2023-06-07T08:08:24.585Z,9.82
2023-06-07T08:11:30.603Z,9.45
2023-06-07T08:14:34.496Z,7.33
2023-06-07T08:17:37.204Z,10.93
2023-06-07T08:20:39.641Z,7.05
2023-06-07T08:23:44.879Z,10.82
2023-06-07T08:26:49.030Z,9.25
2023-06-07T08:29:52.202Z,8.27
2023-06-07T08:32:57.224Z,8.03
2023-06-07T08:36:00.603Z,9.52
2023-06-07T08:39:03.616Z,10.13
2023-06-07T08:42:06.950Z,10.75
2023-06-07T08:45:09.877Z,7.97
2023-06-07T08:48:14.106Z,7.33
2023-06-07T08:51:18.938Z,8.32
2023-06-07T08:54:26.836Z,9.80
2023-06-07T08:57:33.629Z,9.63
2023-06-07T09:00:36.557Z,6.83
2023-06-07T09:03:39.139Z,9.97
2023-06-07T09:06:45.604Z,8.77
2023-06-07T09:09:50.902Z,10.00
2023-06-07T09:12:53.902Z,10.50
2023-06-07T09:15:58.926Z,9.97
2023-06-07T09:19:05.368Z,7.73
2023-06-07T09:25:58.181Z,8.13
2023-06-07T09:29:14.855Z,11.45
2023-06-07T09:32:30.428Z,7.73
2023-06-07T09:35:33.602Z,8.40
2023-06-07T09:38:40.282Z,11.32
2023-06-07T09:41:45.012Z,13.10
2023-06-07T09:44:47.831Z,8.85
2023-06-07T09:48:05.944Z,7.53
2023-06-07T09:51:09.713Z,8.93
2023-06-07T09:55:08.847Z,8.95
2023-06-07T09:58:28.285Z,10.70
2023-06-07T10:01:44.797Z,8.55
2023-06-07T10:05:06.600Z,8.90
2023-06-07T10:09:00.289Z,10.60
2023-06-07T10:12:21.536Z,9.05
2023-06-07T10:15:28.392Z,13.40
2023-06-07T10:18:31.913Z,11.80
2023-06-07T10:21:36.461Z,8.77
2023-06-07T10:25:22.286Z,10.80
2023-06-07T10:29:10.167Z,9.25
2023-06-07T10:32:17.072Z,8.90
2023-06-07T10:35:25.413Z,9.60
2023-06-07T10:38:32.158Z,12.87
2023-06-07T10:41:36.757Z,11.60
2023-06-07T10:44:39.336Z,8.20
2023-06-07T10:47:41.622Z,8.70
2023-06-07T10:50:51.103Z,8.10
2023-06-07T10:53:55.049Z,13.07
2023-06-07T10:56:57.242Z,12.37
2023-06-07T11:00:26.308Z,10.90
2023-06-07T11:03:34.839Z,8.10
2023-06-07T11:07:15.910Z,7.95
2023-06-07T11:10:18.333Z,10.10
2023-06-07T11:13:22.469Z,16.00
2023-06-07T11:16:53.697Z,9.40
2023-06-07T11:20:19.064Z,13.65
2023-06-07T11:27:29.442Z,7.83
2023-06-07T11:30:39.703Z,7.80
2023-06-07T11:33:56.698Z,9.88
2023-06-07T11:37:16.889Z,10.63
2023-06-07T11:40:22.576Z,10.40
2023-06-07T11:43:26.788Z,11.57
2023-06-07T11:46:36.454Z,10.23
2023-06-07T11:49:39.917Z,8.98
2023-06-07T11:52:42.671Z,10.88
2023-06-07T11:55:45.017Z,9.00
2023-06-07T11:58:47.405Z,11.37
2023-06-07T12:01:59.809Z,10.23
2023-06-07T12:05:07.049Z,9.90
2023-06-07T12:08:14.942Z,10.02
2023-06-07T12:11:17.903Z,10.27
2023-06-07T12:14:34.877Z,11.13
2023-06-07T12:17:40.619Z,12.97
2023-06-07T12:20:45.463Z,12.10
2023-06-07T12:23:52.933Z,14.50
2023-06-07T12:26:58.234Z,12.10
2023-06-07T12:30:01.310Z,11.80
2023-06-07T12:33:03.893Z,16.37
2023-06-07T12:36:09.252Z,16.88
2023-06-07T12:39:13.335Z,14.23
2023-06-07T12:42:18.187Z,12.35
2023-06-07T12:45:20.897Z,10.73
2023-06-07T12:48:22.917Z,9.80
2023-06-07T12:51:25.971Z,11.40
2023-06-07T12:54:29.092Z,9.82
2023-06-07T12:57:31.171Z,12.45
2023-06-07T13:00:33.509Z,10.87
2023-06-07T13:03:38.449Z,10.17
2023-06-07T13:06:43.332Z,9.95
2023-06-07T13:09:49.169Z,8.40
2023-06-07T13:12:51.421Z,9.13
2023-06-07T13:15:55.938Z,8.27
2023-06-07T13:19:05.860Z,9.70
2023-06-07T13:22:15.665Z,9.32
2023-06-07T13:25:17.946Z,8.77
2023-06-07T13:28:20.874Z,11.85
2023-06-07T13:31:23.398Z,7.70
2023-06-07T13:34:25.989Z,9.30
2023-06-07T13:37:28.829Z,9.50
2023-06-07T13:40:31.406Z,8.50
2023-06-07T13:46:39.287Z,8.23
2023-06-07T13:49:43.324Z,9.20
2023-06-07T13:52:47.194Z,7.72
2023-06-07T13:55:52.278Z,8.45
2023-06-07T13:58:58.243Z,8.10
2023-06-07T14:02:02.943Z,9.83
2023-06-07T14:05:06.585Z,11.93
2023-06-07T14:08:12.359Z,7.88
2023-06-07T14:11:15.222Z,8.15
2023-06-07T14:14:17.789Z,8.48
2023-06-07T14:17:20.515Z,8.73
2023-06-07T14:20:22.815Z,10.07
2023-06-07T14:23:25.269Z,10.02
2023-06-07T14:26:30.206Z,9.07
2023-06-07T14:29:33.053Z,10.43
2023-06-07T14:32:36.778Z,9.10
2023-06-07T14:35:39.384Z,8.80
2023-06-07T14:38:43.069Z,8.90
2023-06-07T14:41:45.458Z,9.05
2023-06-07T14:44:47.677Z,9.38
2023-06-07T14:47:49.925Z,10.77
2023-06-07T14:50:52.126Z,11.03
2023-06-07T14:53:54.452Z,10.82
2023-06-07T14:56:57.567Z,10.05
2023-06-07T14:59:59.900Z,13.43
2023-06-07T15:03:03.301Z,13.93
2023-06-07T15:06:06.454Z,9.93
2023-06-07T15:09:08.840Z,12.38
2023-06-07T15:12:12.844Z,11.80
2023-06-07T15:15:17.417Z,10.43
2023-06-07T15:18:22.008Z,13.23
2023-06-07T15:21:25.157Z,11.33
2023-06-07T15:24:27.694Z,13.25
2023-06-07T15:27:55.633Z,10.98
2023-06-07T15:31:02.212Z,12.05
2023-06-07T15:34:04.869Z,15.83
2023-06-07T15:37:08.041Z,11.30
2023-06-07T15:40:10.611Z,9.43
2023-06-07T15:43:15.039Z,11.82
2023-06-07T15:46:17.777Z,14.88
2023-06-07T15:49:20.292Z,13.10
2023-06-07T15:52:23.211Z,15.93
2023-06-07T15:55:26.696Z,12.98
2023-06-07T15:58:28.931Z,13.18
2023-06-07T16:01:32.599Z,13.23
2023-06-07T16:04:34.816Z,13.50
2023-06-07T16:07:37.624Z,16.63
2023-06-07T16:10:41.473Z,11.25
2023-06-07T16:13:43.647Z,11.48
2023-06-07T16:16:46.315Z,11.95
2023-06-07T16:19:50.464Z,10.13
2023-06-07T16:22:53.707Z,11.50
2023-06-07T16:25:59.697Z,9.05
2023-06-07T16:29:01.841Z,10.55
2023-06-07T16:32:06.314Z,9.88
2023-06-07T16:35:09.997Z,11.23
2023-06-07T16:38:12.298Z,8.90
2023-06-07T16:41:14.783Z,12.43
2023-06-07T16:44:19.761Z,10.88
2023-06-07T16:47:22.254Z,8.40
2023-06-07T16:50:25.526Z,7.00
2023-06-07T16:53:27.771Z,11.63
2023-06-07T16:56:30.758Z,11.32
2023-06-07T16:59:33.379Z,10.13
2023-06-07T17:02:35.738Z,11.13
2023-06-07T17:05:38.245Z,9.60
2023-06-07T17:08:43.738Z,10.93
2023-06-07T17:11:50.185Z,10.88
2023-06-07T17:14:52.507Z,13.23
2023-06-07T17:17:54.879Z,9.82
2023-06-07T17:20:57.405Z,11.53
2023-06-07T17:23:59.580Z,11.47
2023-06-07T17:27:02.530Z,14.80
2023-06-07T17:30:05.593Z,11.57
2023-06-07T17:33:09.222Z,16.63
2023-06-07T17:36:11.928Z,13.90
2023-06-07T17:39:14.930Z,16.00
2023-06-07T17:42:22.368Z,14.20
2023-06-07T17:45:24.982Z,20.27
2023-06-07T17:48:27.737Z,16.08
2023-06-07T17:51:32.256Z,15.37
2023-06-07T17:54:34.646Z,23.37
2023-06-07T17:57:37.120Z,20.70
2023-06-07T18:00:39.590Z,25.33
2023-06-07T18:03:45.929Z,31.15
2023-06-07T18:06:47.936Z,31.00
2023-06-07T18:09:50.533Z,36.93
2023-06-07T18:12:52.606Z,33.35
2023-06-07T18:15:55.842Z,20.33
2023-06-07T18:18:58.092Z,20.55
2023-06-07T18:22:01.351Z,20.57
2023-06-07T18:25:04.274Z,18.13
2023-06-07T18:28:07.504Z,12.90
2023-06-07T18:31:09.512Z,17.38
2023-06-07T18:34:17.797Z,16.95
2023-06-07T18:37:20.209Z,17.53
2023-06-07T18:40:23.030Z,22.57
2023-06-07T18:43:25.364Z,15.88
2023-06-07T18:46:27.507Z,19.65
2023-06-07T18:49:31.951Z,15.38
2023-06-07T18:52:37.442Z,17.90
2023-06-07T18:55:39.685Z,16.80
2023-06-07T18:58:42.197Z,15.68
2023-06-07T19:01:51.754Z,17.33
2023-06-07T19:04:54.712Z,13.82
2023-06-07T19:07:59.455Z,17.27
2023-06-07T19:11:02.055Z,14.73
2023-06-07T19:14:06.035Z,14.98
2023-06-07T19:17:08.497Z,16.98
2023-06-07T19:20:14.354Z,16.25
2023-06-07T19:23:16.980Z,17.70
2023-06-07T19:26:19.744Z,20.57
2023-06-07T19:29:22.354Z,21.65
2023-06-07T19:32:24.708Z,27.88
2023-06-07T19:35:27.452Z,31.67
2023-06-07T19:38:31.133Z,26.50
2023-06-07T19:41:33.703Z,26.87
2023-06-07T19:44:38.957Z,26.80
2023-06-07T19:47:42.651Z,26.00
2023-06-07T19:50:45.066Z,25.50
2023-06-07T19:53:47.758Z,32.90
2023-06-07T19:56:50.043Z,33.43
2023-06-07T19:59:53.382Z,34.72
2023-06-07T20:02:55.742Z,36.50
2023-06-07T20:05:58.294Z,36.72
2023-06-07T20:09:00.483Z,37.73
2023-06-07T20:12:03.709Z,34.60
2023-06-07T20:15:06.642Z,33.30
2023-06-07T20:18:09.001Z,38.33
2023-06-07T20:21:11.246Z,35.67
2023-06-07T20:24:14.359Z,39.23
2023-06-07T20:27:16.510Z,37.83
2023-06-07T20:30:19.838Z,37.67
2023-06-07T20:33:22.082Z,40.20
2023-06-07T20:36:24.142Z,37.58
2023-06-07T20:39:27.519Z,36.03
2023-06-07T20:42:32.247Z,38.77
2023-06-07T20:45:34.479Z,35.38
2023-06-07T20:48:37.883Z,35.75
2023-06-07T20:51:40.124Z,34.30
2023-06-07T20:54:42.230Z,36.60
2023-06-07T20:57:44.380Z,35.73
2023-06-07T21:00:46.894Z,42.97
2023-06-07T21:03:51.708Z,38.13
2023-06-07T21:06:55.922Z,42.33
2023-06-07T21:09:58.003Z,39.70
2023-06-07T21:13:01.349Z,48.33
2023-06-07T21:16:03.665Z,43.75
2023-06-07T21:19:07.619Z,39.78
2023-06-07T21:22:09.795Z,43.35
2023-06-07T21:25:13.867Z,39.50
2023-06-07T21:28:16.595Z,41.00
2023-06-07T21:31:19.028Z,44.78
2023-06-07T21:34:22.495Z,45.28
2023-06-07T21:37:24.724Z,42.65
2023-06-07T21:40:28.133Z,39.33
2023-06-07T21:43:30.352Z,39.10
2023-06-07T21:46:32.371Z,36.63
2023-06-07T21:49:34.758Z,39.97
2023-06-07T21:52:36.873Z,40.58
2023-06-07T21:55:38.971Z,38.80
2023-06-07T21:58:41.055Z,38.77
2023-06-07T22:01:43.198Z,40.80
2023-06-07T22:04:47.833Z,42.40
2023-06-07T22:07:50.493Z,37.08
2023-06-07T22:10:52.426Z,32.90
2023-06-07T22:13:58.669Z,38.50
2023-06-07T22:17:04.867Z,34.38
2023-06-07T22:20:08.152Z,35.40
2023-06-07T22:23:11.296Z,35.28
2023-06-07T22:26:16.494Z,41.10
2023-06-07T22:29:19.571Z,36.07
2023-06-07T22:32:29.204Z,29.98
2023-06-07T22:35:33.972Z,31.38
2023-06-07T22:38:37.046Z,30.10
2023-06-07T22:41:39.635Z,25.23
2023-06-07T22:44:41.518Z,26.57
2023-06-07T22:47:44.308Z,20.42
2023-06-07T22:50:48.902Z,22.90
2023-06-07T22:53:51.374Z,22.15
2023-06-07T22:56:53.599Z,24.17
2023-06-07T22:59:55.782Z,28.17
2023-06-07T23:03:00.673Z,27.77
2023-06-07T23:06:03.460Z,26.35
2023-06-07T23:09:07.161Z,29.75
2023-06-07T23:12:10.451Z,25.57
2023-06-07T23:15:19.838Z,25.63
2023-06-07T23:18:21.972Z,25.40
2023-06-07T23:21:27.488Z,26.40
2023-06-07T23:24:30.791Z,28.55
2023-06-07T23:27:33.883Z,25.83
2023-06-07T23:30:39.404Z,30.70
2023-06-07T23:33:43.312Z,31.17
2023-06-07T23:36:45.961Z,27.52
2023-06-07T23:39:48.828Z,28.48
2023-06-07T23:42:53.766Z,26.33
2023-06-07T23:45:56.479Z,26.93
2023-06-07T23:49:00.112Z,24.73
2023-06-07T23:52:03.599Z,23.58
2023-06-07T23:55:06.551Z,24.25
2023-06-07T23:58:08.913Z,25.10
